createdAt,value
2023-07-18T00:01:51.502Z,61.59
2023-07-18T00:04:19.706Z,61.62
2023-07-18T00:06:47.654Z,60.68
2023-07-18T00:09:16.415Z,59.20
2023-07-18T00:11:44.997Z,60.61
2023-07-18T00:14:12.972Z,63.91
2023-07-18T00:16:41.200Z,63.46
2023-07-18T00:19:13.529Z,61.22
2023-07-18T00:21:42.133Z,61.15
2023-07-18T00:24:10.678Z,60.15
2023-07-18T00:26:38.563Z,61.20
2023-07-18T00:29:07.437Z,60.60
2023-07-18T00:31:35.476Z,58.43
2023-07-18T00:34:04.414Z,61.05
2023-07-18T00:36:32.769Z,64.44
2023-07-18T00:39:00.791Z,64.17
2023-07-18T00:41:28.697Z,62.62
2023-07-18T00:43:57.080Z,61.41
2023-07-18T00:46:25.623Z,60.70
2023-07-18T00:48:55.655Z,60.07
2023-07-18T00:51:26.431Z,58.58
2023-07-18T00:53:54.672Z,59.59
2023-07-18T00:56:23.086Z,61.31
2023-07-18T00:58:51.039Z,64.19
2023-07-18T01:01:19.275Z,61.88
2023-07-18T01:03:47.433Z,61.44
2023-07-18T01:06:15.862Z,59.97
2023-07-18T01:08:43.815Z,57.36
2023-07-18T01:11:11.930Z,60.38
2023-07-18T01:13:40.350Z,62.47
2023-07-18T01:16:08.946Z,61.88
2023-07-18T01:18:38.373Z,62.20
2023-07-18T01:21:10.800Z,61.22
2023-07-18T01:23:38.739Z,58.74
2023-07-18T01:26:06.749Z,60.81
2023-07-18T01:28:34.691Z,63.25
2023-07-18T01:31:02.601Z,62.50
2023-07-18T01:33:30.820Z,60.84
2023-07-18T01:35:58.756Z,58.88
2023-07-18T01:38:30.736Z,60.31
2023-07-18T01:41:00.430Z,63.34
2023-07-18T01:43:28.447Z,62.61
2023-07-18T01:46:02.846Z,60.77
2023-07-18T01:48:30.917Z,58.72
2023-07-18T01:50:59.788Z,60.56
2023-07-18T01:53:28.765Z,67.16
2023-07-18T01:56:00.348Z,66.51
2023-07-18T01:58:29.283Z,65.19
2023-07-18T02:00:57.245Z,65.43
2023-07-18T02:03:25.336Z,63.95
2023-07-18T02:05:53.545Z,64.63
2023-07-18T02:08:21.623Z,64.04
2023-07-18T02:10:50.092Z,63.43
2023-07-18T02:13:18.344Z,63.42
2023-07-18T02:15:46.380Z,63.24
2023-07-18T02:18:14.297Z,64.02
2023-07-18T02:20:42.192Z,63.86
2023-07-18T02:23:10.257Z,64.48
2023-07-18T02:25:40.362Z,63.34
2023-07-18T02:28:09.011Z,63.53
2023-07-18T02:30:38.035Z,64.04
2023-07-18T02:33:08.509Z,63.82
2023-07-18T02:35:40.383Z,64.45
2023-07-18T02:38:08.379Z,65.66
2023-07-18T02:40:36.324Z,65.42
2023-07-18T02:43:06.017Z,65.77
2023-07-18T02:45:33.986Z,67.33
2023-07-18T02:48:02.057Z,69.68
2023-07-18T02:50:30.019Z,69.42
2023-07-18T02:52:59.863Z,69.25
2023-07-18T02:55:29.068Z,68.56
2023-07-18T02:57:57.177Z,68.52
2023-07-18T03:00:27.390Z,67.89
2023-07-18T03:02:55.904Z,67.86
2023-07-18T03:05:24.235Z,67.27
2023-07-18T03:07:54.171Z,66.66
2023-07-18T03:10:22.910Z,65.40
2023-07-18T03:12:50.995Z,65.40
2023-07-18T03:15:22.663Z,63.86
2023-07-18T03:17:50.660Z,63.17
2023-07-18T03:20:20.612Z,62.70
2023-07-18T03:22:51.541Z,62.51
2023-07-18T03:25:22.258Z,61.93
2023-07-18T03:27:50.880Z,61.91
2023-07-18T03:30:19.608Z,61.63
2023-07-18T03:32:47.634Z,61.15
2023-07-18T03:35:15.767Z,61.14
2023-07-18T03:37:44.261Z,60.74
2023-07-18T03:40:17.669Z,59.86
2023-07-18T03:42:46.435Z,59.67
2023-07-18T03:45:15.776Z,59.86
2023-07-18T03:47:44.863Z,59.74
2023-07-18T03:50:14.582Z,59.88
2023-07-18T03:52:43.210Z,59.48
2023-07-18T03:55:11.308Z,60.76
2023-07-18T03:57:41.095Z,63.16
2023-07-18T04:00:14.678Z,62.57
2023-07-18T04:02:46.470Z,60.65
2023-07-18T04:05:19.449Z,59.79
2023-07-18T04:07:48.724Z,59.19
2023-07-18T04:10:16.946Z,62.18
2023-07-18T04:12:45.331Z,64.06
2023-07-18T04:15:14.064Z,62.53
2023-07-18T04:17:42.570Z,59.98
2023-07-18T04:20:11.764Z,58.09
2023-07-18T04:22:39.803Z,60.40
2023-07-18T04:25:08.122Z,62.61
2023-07-18T04:27:36.031Z,61.61
2023-07-18T04:30:05.103Z,58.93
2023-07-18T04:32:33.066Z,57.93
2023-07-18T04:35:01.057Z,60.21
2023-07-18T04:37:29.482Z,63.43
2023-07-18T04:39:57.456Z,62.32
2023-07-18T04:42:25.413Z,59.80
2023-07-18T04:44:53.397Z,56.91
2023-07-18T04:47:21.597Z,58.46
2023-07-18T04:49:50.300Z,61.05
2023-07-18T04:52:18.884Z,64.22
2023-07-18T04:54:46.805Z,60.91
2023-07-18T04:57:15.335Z,58.14
2023-07-18T04:59:43.929Z,59.84
2023-07-18T05:02:11.903Z,62.69
2023-07-18T05:04:40.470Z,63.98
2023-07-18T05:07:08.519Z,60.78
2023-07-18T05:09:36.811Z,56.42
2023-07-18T05:12:05.320Z,58.85
2023-07-18T05:14:33.694Z,62.21
2023-07-18T05:17:01.612Z,64.20
2023-07-18T05:19:29.797Z,60.96
2023-07-18T05:21:57.722Z,58.73
2023-07-18T05:24:26.047Z,61.20
2023-07-18T05:26:54.143Z,63.70
2023-07-18T05:29:22.093Z,59.66
2023-07-18T05:31:50.043Z,58.60
2023-07-18T05:34:18.034Z,61.89
2023-07-18T05:36:46.037Z,62.25
2023-07-18T05:39:13.998Z,57.50
2023-07-18T05:41:41.963Z,58.00
2023-07-18T05:44:11.503Z,60.28
2023-07-18T05:46:41.265Z,63.28
2023-07-18T05:49:09.634Z,61.47
2023-07-18T05:51:37.619Z,55.69
2023-07-18T05:54:05.773Z,57.72
2023-07-18T05:56:34.250Z,60.71
2023-07-18T05:59:02.196Z,62.47
2023-07-18T06:01:31.183Z,60.41
2023-07-18T06:04:00.249Z,56.42
2023-07-18T06:06:28.278Z,56.95
2023-07-18T06:08:56.237Z,58.31
2023-07-18T06:11:24.819Z,60.53
2023-07-18T06:13:52.793Z,61.84
2023-07-18T06:16:20.879Z,61.79
2023-07-18T06:18:48.934Z,62.26
2023-07-18T06:21:17.720Z,57.35
2023-07-18T06:23:47.760Z,57.55
2023-07-18T06:26:15.808Z,58.69
2023-07-18T06:28:43.746Z,60.33
2023-07-18T06:31:11.990Z,60.90
2023-07-18T06:33:40.201Z,60.80
2023-07-18T06:36:08.232Z,60.33
2023-07-18T06:38:36.133Z,60.92
2023-07-18T06:41:04.052Z,62.00
2023-07-18T06:43:33.842Z,63.59
2023-07-18T06:46:01.929Z,59.08
2023-07-18T06:48:29.839Z,56.50
2023-07-18T06:51:00.319Z,56.74
2023-07-18T06:53:28.321Z,58.64
2023-07-18T06:55:56.410Z,60.03
2023-07-18T06:58:24.351Z,60.05
2023-07-18T07:00:52.624Z,60.10
2023-07-18T07:03:20.793Z,60.95
2023-07-18T07:05:49.006Z,61.91
2023-07-18T07:08:20.354Z,61.52
2023-07-18T07:10:48.368Z,60.48
2023-07-18T07:13:16.404Z,61.04
2023-07-18T07:15:44.434Z,61.76
2023-07-18T07:18:12.396Z,61.40
2023-07-18T07:20:40.462Z,61.46
2023-07-18T07:23:08.507Z,61.81
2023-07-18T07:25:36.676Z,61.93
2023-07-18T07:28:05.476Z,60.84
2023-07-18T07:30:33.489Z,60.58
2023-07-18T07:33:01.488Z,61.53
2023-07-18T07:35:31.236Z,60.90
2023-07-18T07:38:00.296Z,58.79
2023-07-18T07:40:28.237Z,58.56
2023-07-18T07:42:56.510Z,58.18
2023-07-18T07:45:24.707Z,56.79
2023-07-18T07:47:52.766Z,55.74
2023-07-18T07:50:20.823Z,56.59
2023-07-18T07:52:48.946Z,56.69
2023-07-18T07:55:17.339Z,56.50
2023-07-18T07:57:45.417Z,55.45
2023-07-18T08:00:14.202Z,55.62
2023-07-18T08:02:42.344Z,54.08
2023-07-18T08:05:10.406Z,53.59
2023-07-18T08:07:39.303Z,53.79
2023-07-18T08:10:07.601Z,54.02
2023-07-18T08:12:35.570Z,54.63
2023-07-18T08:15:03.845Z,53.80
2023-07-18T08:17:31.854Z,53.44
2023-07-18T08:19:59.937Z,54.30
2023-07-18T08:22:27.956Z,54.48
2023-07-18T08:24:56.089Z,54.09
2023-07-18T08:27:24.054Z,53.51
2023-07-18T08:29:51.953Z,53.61
2023-07-18T08:32:19.874Z,52.53
2023-07-18T08:34:47.807Z,51.93
2023-07-18T08:37:15.783Z,51.59
2023-07-18T08:39:43.761Z,51.47
2023-07-18T08:42:15.126Z,50.35
2023-07-18T08:44:46.092Z,50.10
2023-07-18T08:47:14.552Z,50.35
2023-07-18T08:49:42.712Z,51.10
2023-07-18T08:52:10.811Z,51.18
2023-07-18T08:54:38.784Z,49.68
2023-07-18T08:57:07.468Z,49.40
2023-07-18T08:59:36.571Z,49.23
2023-07-18T09:02:05.232Z,50.25
2023-07-18T09:04:33.423Z,48.66
2023-07-18T09:07:02.549Z,48.83
2023-07-18T09:09:30.554Z,47.57
2023-07-18T09:12:04.341Z,48.21
2023-07-18T09:14:35.264Z,48.90
2023-07-18T09:17:06.158Z,49.15
2023-07-18T09:19:46.852Z,48.78
2023-07-18T09:22:16.874Z,48.96
2023-07-18T09:24:48.334Z,48.88
2023-07-18T09:27:19.171Z,49.18
2023-07-18T09:29:49.161Z,48.67
2023-07-18T09:32:21.730Z,47.32
2023-07-18T09:34:53.963Z,47.03
2023-07-18T09:37:22.205Z,46.21
2023-07-18T09:39:51.077Z,45.72
2023-07-18T09:42:20.984Z,45.75
2023-07-18T09:44:51.977Z,46.32
2023-07-18T09:47:21.412Z,46.67
2023-07-18T09:49:50.697Z,46.14
2023-07-18T09:52:24.596Z,46.41
2023-07-18T09:54:53.806Z,46.48
2023-07-18T09:57:23.171Z,46.58
2023-07-18T09:59:52.138Z,46.35
2023-07-18T10:02:20.144Z,43.90
2023-07-18T10:04:49.671Z,42.49
2023-07-18T10:07:18.744Z,41.75
2023-07-18T10:09:47.904Z,41.86
2023-07-18T10:12:15.883Z,42.10
2023-07-18T10:14:43.923Z,42.91
2023-07-18T10:17:26.529Z,43.17
2023-07-18T10:19:54.720Z,43.39
2023-07-18T10:22:30.466Z,43.15
2023-07-18T10:25:06.451Z,43.43
2023-07-18T10:27:39.734Z,43.82
2023-07-18T10:30:19.151Z,42.92
2023-07-18T10:32:58.870Z,42.54
2023-07-18T10:35:28.452Z,42.74
2023-07-18T10:37:58.481Z,43.38
2023-07-18T10:40:44.804Z,43.03
2023-07-18T10:43:20.237Z,42.28
2023-07-18T10:45:48.398Z,41.66
2023-07-18T10:48:22.291Z,41.98
2023-07-18T10:50:51.144Z,42.68
2023-07-18T10:53:21.351Z,42.81
2023-07-18T10:55:49.999Z,43.58
2023-07-18T10:58:20.933Z,43.08
2023-07-18T11:00:51.598Z,43.47
2023-07-18T11:03:22.523Z,43.31
2023-07-18T11:05:51.353Z,43.35
2023-07-18T11:08:31.599Z,43.77
2023-07-18T11:11:00.529Z,43.54
2023-07-18T11:13:38.693Z,42.51
2023-07-18T11:16:08.020Z,42.57
2023-07-18T11:18:39.827Z,42.17
2023-07-18T11:21:08.421Z,42.09
2023-07-18T11:23:37.028Z,40.57
2023-07-18T11:26:11.434Z,39.31
2023-07-18T11:28:41.045Z,39.48
2023-07-18T11:31:39.503Z,40.21
2023-07-18T11:34:10.457Z,39.90
2023-07-18T11:36:41.150Z,40.31
2023-07-18T11:39:23.482Z,39.98
2023-07-18T11:41:53.658Z,38.13
2023-07-18T11:44:26.037Z,38.36
2023-07-18T11:46:54.168Z,37.57
2023-07-18T11:49:35.695Z,37.73
2023-07-18T11:52:05.302Z,38.31
2023-07-18T11:54:36.923Z,38.54
2023-07-18T11:57:06.422Z,38.39
2023-07-18T11:59:34.425Z,37.83
2023-07-18T12:02:02.881Z,38.05
2023-07-18T12:04:30.910Z,36.99
2023-07-18T12:06:58.976Z,36.80
2023-07-18T12:09:26.964Z,36.00
2023-07-18T12:11:55.669Z,36.10
2023-07-18T12:14:23.639Z,36.05
2023-07-18T12:16:52.008Z,34.55
2023-07-18T12:19:21.854Z,34.35
2023-07-18T12:21:52.738Z,34.04
2023-07-18T12:24:20.630Z,35.13
2023-07-18T12:26:48.528Z,34.78
2023-07-18T12:29:18.291Z,34.49
2023-07-18T12:31:53.065Z,34.29
2023-07-18T12:34:21.470Z,33.27
2023-07-18T12:36:49.663Z,33.14
2023-07-18T12:39:19.049Z,33.04
2023-07-18T12:41:46.901Z,33.46
2023-07-18T12:44:26.864Z,33.74
2023-07-18T12:46:57.117Z,33.83
2023-07-18T12:51:56.157Z,34.03
2023-07-18T12:54:24.272Z,33.21
2023-07-18T12:56:52.152Z,34.09
2023-07-18T12:59:20.177Z,33.72
2023-07-18T13:01:48.129Z,34.38
2023-07-18T13:04:16.018Z,33.78
2023-07-18T13:06:43.937Z,33.93
2023-07-18T13:09:11.804Z,34.21
2023-07-18T13:11:39.777Z,32.88
2023-07-18T13:14:07.646Z,33.54
2023-07-18T13:16:36.294Z,32.36
2023-07-18T13:19:05.405Z,32.37
2023-07-18T13:21:33.260Z,32.77
2023-07-18T13:24:01.162Z,33.71
2023-07-18T13:26:29.108Z,34.12
2023-07-18T13:28:57.591Z,34.38
2023-07-18T13:31:25.672Z,33.99
2023-07-18T13:33:53.585Z,33.72
2023-07-18T13:36:21.670Z,33.58
2023-07-18T13:38:49.670Z,33.84
2023-07-18T13:41:17.829Z,33.87
2023-07-18T13:43:45.679Z,33.34
2023-07-18T13:46:13.929Z,32.83
2023-07-18T13:48:41.998Z,33.49
2023-07-18T13:51:10.221Z,33.03
2023-07-18T13:53:38.928Z,32.45
2023-07-18T13:56:06.788Z,32.60
2023-07-18T13:58:34.648Z,33.64
2023-07-18T14:01:02.475Z,33.91
2023-07-18T14:03:35.807Z,34.08
2023-07-18T14:06:05.154Z,34.47
2023-07-18T14:08:33.414Z,35.28
2023-07-18T14:11:01.389Z,34.39
2023-07-18T14:13:29.331Z,33.83
2023-07-18T14:15:57.175Z,34.39
2023-07-18T14:18:25.060Z,34.27
2023-07-18T14:20:52.966Z,33.28
2023-07-18T14:23:20.843Z,33.54
2023-07-18T14:25:51.713Z,33.95
2023-07-18T14:28:19.574Z,34.18
2023-07-18T14:30:47.329Z,33.13
2023-07-18T14:33:15.472Z,32.74
2023-07-18T14:35:44.249Z,34.03
2023-07-18T14:38:12.135Z,33.89
2023-07-18T14:40:40.156Z,33.80
2023-07-18T14:43:09.898Z,34.71
2023-07-18T14:45:38.797Z,33.85
2023-07-18T14:48:07.371Z,33.40
2023-07-18T14:50:35.558Z,33.82
2023-07-18T14:53:03.459Z,34.44
2023-07-18T14:58:02.438Z,32.75
2023-07-18T15:00:30.430Z,31.46
2023-07-18T15:02:58.699Z,31.58
2023-07-18T15:05:27.183Z,32.73
2023-07-18T15:07:55.086Z,31.80
2023-07-18T15:10:23.048Z,32.26
2023-07-18T15:12:50.958Z,32.79
2023-07-18T15:15:19.497Z,32.66
2023-07-18T15:17:47.854Z,33.41
2023-07-18T15:20:16.337Z,33.28
2023-07-18T15:22:44.742Z,33.43
2023-07-18T15:25:12.695Z,33.25
2023-07-18T15:27:41.584Z,32.04
2023-07-18T15:30:10.300Z,32.22
2023-07-18T15:32:40.249Z,32.33
2023-07-18T15:35:08.369Z,31.60
2023-07-18T15:37:37.355Z,30.85
2023-07-18T15:40:05.576Z,31.07
2023-07-18T15:42:34.579Z,31.05
2023-07-18T15:45:03.068Z,31.29
2023-07-18T15:47:31.020Z,31.50
2023-07-18T15:49:58.880Z,30.78
2023-07-18T15:52:27.681Z,31.18
2023-07-18T15:54:55.496Z,31.49
2023-07-18T15:57:24.286Z,31.13
2023-07-18T15:59:52.156Z,31.80
2023-07-18T16:02:20.106Z,31.83
2023-07-18T16:04:48.443Z,31.83
2023-07-18T16:07:16.391Z,32.06
2023-07-18T16:09:51.785Z,33.08
2023-07-18T16:12:20.184Z,31.96
2023-07-18T16:14:48.218Z,31.33
2023-07-18T16:17:16.367Z,30.82
2023-07-18T16:19:45.732Z,31.10
2023-07-18T16:22:13.818Z,31.06
2023-07-18T16:24:42.778Z,30.91
2023-07-18T16:27:10.667Z,31.02
2023-07-18T16:29:39.211Z,31.96
2023-07-18T16:32:07.872Z,32.13
2023-07-18T16:34:35.939Z,32.53
2023-07-18T16:37:04.296Z,32.99
2023-07-18T16:39:33.220Z,33.33
2023-07-18T16:42:13.400Z,33.33
2023-07-18T16:44:49.169Z,34.01
2023-07-18T16:47:17.093Z,34.19
2023-07-18T16:49:45.695Z,34.46
2023-07-18T16:52:13.751Z,34.93
2023-07-18T16:54:41.619Z,35.81
2023-07-18T16:57:10.015Z,36.47
2023-07-18T16:59:37.884Z,36.87
2023-07-18T17:02:06.680Z,37.40
2023-07-18T17:04:34.657Z,37.72
2023-07-18T17:07:02.618Z,37.88
2023-07-18T17:09:30.470Z,37.74
2023-07-18T17:11:58.422Z,38.24
2023-07-18T17:14:26.280Z,38.52
2023-07-18T17:16:54.191Z,38.51
2023-07-18T17:19:22.128Z,38.46
2023-07-18T17:21:50.073Z,38.70
2023-07-18T17:24:18.264Z,39.16
2023-07-18T17:26:47.104Z,39.26
2023-07-18T17:29:15.023Z,39.17
2023-07-18T17:32:23.558Z,38.41
2023-07-18T17:35:42.435Z,37.51
2023-07-18T17:38:10.495Z,36.98
2023-07-18T17:40:38.352Z,36.60
2023-07-18T17:43:06.348Z,36.41
2023-07-18T17:45:35.369Z,36.42
2023-07-18T17:48:03.361Z,36.66
2023-07-18T17:50:31.370Z,37.13
2023-07-18T17:52:59.299Z,37.56
2023-07-18T17:55:27.286Z,37.72
2023-07-18T17:57:55.255Z,38.03
2023-07-18T18:00:23.236Z,38.01
2023-07-18T18:02:51.700Z,38.46
2023-07-18T18:05:47.155Z,38.52
2023-07-18T18:08:17.310Z,38.16
2023-07-18T18:10:46.411Z,38.22
2023-07-18T18:13:14.869Z,38.50
2023-07-18T18:15:52.608Z,39.15
2023-07-18T18:18:30.669Z,39.93
2023-07-18T18:20:59.486Z,40.80
2023-07-18T18:23:36.699Z,41.37
2023-07-18T18:26:06.121Z,41.67
2023-07-18T18:28:34.048Z,41.86
2023-07-18T18:31:02.396Z,42.01
2023-07-18T18:33:30.314Z,42.28
2023-07-18T18:35:59.611Z,42.63
2023-07-18T18:38:28.251Z,43.20
2023-07-18T18:40:56.301Z,43.87
2023-07-18T18:43:24.159Z,44.45
2023-07-18T18:45:52.499Z,45.07
2023-07-18T18:48:20.582Z,45.62
2023-07-18T18:50:48.378Z,46.15
2023-07-18T18:53:16.848Z,46.13
2023-07-18T18:55:45.765Z,46.08
2023-07-18T18:58:14.633Z,46.67
2023-07-18T19:00:42.656Z,46.86
2023-07-18T19:03:10.666Z,46.69
2023-07-18T19:05:38.657Z,47.36
2023-07-18T19:08:06.517Z,48.04
2023-07-18T19:10:34.654Z,49.09
2023-07-18T19:13:02.533Z,49.40
2023-07-18T19:15:30.492Z,49.74
2023-07-18T19:17:58.488Z,51.31
2023-07-18T19:20:28.942Z,52.14
2023-07-18T19:22:56.978Z,52.98
2023-07-18T19:25:27.961Z,54.21
2023-07-18T19:27:55.862Z,54.27
2023-07-18T19:30:23.790Z,54.45
2023-07-18T19:32:51.817Z,54.46
2023-07-18T19:35:19.878Z,54.50
2023-07-18T19:37:47.733Z,54.60
2023-07-18T19:40:16.989Z,55.22
2023-07-18T19:42:44.868Z,54.78
2023-07-18T19:45:12.757Z,54.55
2023-07-18T19:47:40.677Z,54.47
2023-07-18T19:50:11.329Z,53.88
2023-07-18T19:52:40.493Z,54.01
2023-07-18T19:55:09.778Z,54.79
2023-07-18T19:57:37.663Z,55.06
2023-07-18T20:00:07.439Z,55.53
2023-07-18T20:02:35.471Z,55.20
2023-07-18T20:05:05.171Z,55.43
2023-07-18T20:07:33.191Z,55.72
2023-07-18T20:10:04.019Z,55.86
2023-07-18T20:12:35.075Z,55.95
2023-07-18T20:15:04.343Z,55.77
2023-07-18T20:17:32.211Z,55.47
2023-07-18T20:20:01.035Z,56.13
2023-07-18T20:22:29.015Z,56.69
2023-07-18T20:24:56.875Z,56.67
2023-07-18T20:27:26.505Z,56.99
2023-07-18T20:29:54.507Z,57.17
2023-07-18T20:32:22.380Z,57.50
2023-07-18T20:34:50.382Z,57.92
2023-07-18T20:37:18.215Z,58.09
2023-07-18T20:39:46.164Z,57.88
2023-07-18T20:42:14.052Z,57.77
2023-07-18T20:44:45.316Z,57.77
2023-07-18T20:47:13.434Z,57.72
2023-07-18T20:49:41.311Z,57.50
2023-07-18T20:52:09.141Z,57.20
2023-07-18T20:54:37.385Z,56.90
2023-07-18T20:57:05.546Z,56.90
2023-07-18T20:59:33.634Z,56.69
2023-07-18T21:02:01.638Z,57.82
2023-07-18T21:04:29.493Z,57.46
2023-07-18T21:06:57.466Z,56.75
2023-07-18T21:09:25.335Z,57.25
2023-07-18T21:11:53.240Z,57.35
2023-07-18T21:14:21.099Z,57.56
2023-07-18T21:16:48.913Z,58.77
2023-07-18T21:19:16.839Z,58.77
2023-07-18T21:21:44.649Z,59.12
2023-07-18T21:24:14.220Z,59.57
2023-07-18T21:26:42.117Z,59.71
2023-07-18T21:29:10.057Z,59.92
2023-07-18T21:31:38.099Z,59.64
2023-07-18T21:34:06.005Z,59.56
2023-07-18T21:36:33.866Z,59.57
2023-07-18T21:39:01.801Z,59.82
2023-07-18T21:41:32.882Z,59.92
2023-07-18T21:44:02.771Z,60.11
2023-07-18T21:46:30.813Z,60.25
2023-07-18T21:48:58.696Z,60.36
2023-07-18T21:51:26.526Z,60.52
2023-07-18T21:53:54.424Z,60.43
2023-07-18T21:56:22.266Z,60.43
2023-07-18T21:58:50.104Z,60.29
2023-07-18T22:01:18.498Z,60.26
2023-07-18T22:03:46.758Z,60.21
2023-07-18T22:06:15.408Z,60.27
2023-07-18T22:08:43.208Z,60.38
2023-07-18T22:11:11.144Z,60.33
2023-07-18T22:13:39.093Z,60.31
2023-07-18T22:16:07.040Z,60.09
2023-07-18T22:18:35.604Z,60.05
2023-07-18T22:21:04.601Z,60.24
2023-07-18T22:23:32.528Z,60.35
2023-07-18T22:26:13.436Z,60.35
2023-07-18T22:28:43.105Z,60.27
2023-07-18T22:31:12.152Z,60.06
2023-07-18T22:33:40.594Z,60.24
2023-07-18T22:36:09.312Z,60.03
2023-07-18T22:38:37.227Z,59.97
2023-07-18T22:41:05.109Z,60.01
2023-07-18T22:43:33.075Z,59.94
2023-07-18T22:46:00.968Z,59.83
2023-07-18T22:48:28.943Z,59.81
2023-07-18T22:50:59.002Z,59.80
2023-07-18T22:53:26.957Z,59.77
2023-07-18T22:55:54.909Z,59.84
2023-07-18T22:58:22.746Z,59.90
2023-07-18T23:00:50.656Z,59.75
2023-07-18T23:03:18.696Z,59.71
2023-07-18T23:05:46.689Z,59.71
2023-07-18T23:08:14.593Z,59.66
2023-07-18T23:10:42.452Z,59.49
2023-07-18T23:13:10.460Z,59.16
2023-07-18T23:15:38.408Z,59.13
2023-07-18T23:18:06.341Z,59.06
2023-07-18T23:20:34.258Z,59.02
2023-07-18T23:23:03.404Z,59.10
2023-07-18T23:25:31.338Z,59.23
2023-07-18T23:27:59.181Z,59.27
2023-07-18T23:30:27.077Z,59.42
2023-07-18T23:32:54.921Z,59.40
2023-07-18T23:35:26.029Z,59.45
2023-07-18T23:37:55.180Z,59.63
2023-07-18T23:40:23.032Z,59.35
2023-07-18T23:42:50.906Z,59.17
2023-07-18T23:45:18.732Z,59.23
2023-07-18T23:47:46.594Z,59.30
2023-07-18T23:50:14.452Z,59.34
2023-07-18T23:52:42.260Z,59.13
2023-07-18T23:55:10.086Z,59.15
2023-07-18T23:57:37.998Z,59.24
